sensor_id;sensor_type;location;lat;lon;timestamp;temperature;humidity
16116;DHT22;8162;47.104;15.432;2023-04-06T12:10:22;10.80;28.60
16116;DHT22;8162;47.104;15.432;2023-04-06T12:13:23;11.70;32.70
16116;DHT22;8162;47.104;15.432;2023-04-06T12:16:23;12.00;34.40
16116;DHT22;8162;47.104;15.432;2023-04-06T12:19:24;12.40;26.70
16116;DHT22;8162;47.104;15.432;2023-04-06T12:22:26;12.80;25.80
16116;DHT22;8162;47.104;15.432;2023-04-06T12:25:26;13.00;24.40
16116;DHT22;8162;47.104;15.432;2023-04-06T12:37:30;13.70;23.70
16116;DHT22;8162;47.104;15.432;2023-04-06T12:40:36;19.50;19.70
16116;DHT22;8162;47.104;15.432;2023-04-06T12:43:39;21.70;19.20
16116;DHT22;8162;47.104;15.432;2023-04-06T12:46:39;23.90;18.30
16116;DHT22;8162;47.104;15.432;2023-04-06T12:49:41;24.80;17.50
16116;DHT22;8162;47.104;15.432;2023-04-06T12:52:41;25.60;16.70
16116;DHT22;8162;47.104;15.432;2023-04-06T13:01:45;25.30;17.20
16116;DHT22;8162;47.104;15.432;2023-04-06T13:04:45;27.40;15.40
16116;DHT22;8162;47.104;15.432;2023-04-06T13:07:46;25.10;15.80
16116;DHT22;8162;47.104;15.432;2023-04-06T13:10:48;25.10;16.20
16116;DHT22;8162;47.104;15.432;2023-04-06T13:13:49;25.20;17.20
16116;DHT22;8162;47.104;15.432;2023-04-06T13:22:52;23.30;16.60
16116;DHT22;8162;47.104;15.432;2023-04-06T13:29:01;25.60;16.20
16116;DHT22;8162;47.104;15.432;2023-04-06T13:32:02;23.90;17.00
16116;DHT22;8162;47.104;15.432;2023-04-06T13:35:03;23.50;18.50
16116;DHT22;8162;47.104;15.432;2023-04-06T13:38:05;23.10;17.70
16116;DHT22;8162;47.104;15.432;2023-04-06T13:41:06;21.90;17.50
16116;DHT22;8162;47.104;15.432;2023-04-06T13:47:07;20.90;18.00
16116;DHT22;8162;47.104;15.432;2023-04-06T13:50:08;20.30;18.20
16116;DHT22;8162;47.104;15.432;2023-04-06T13:53:09;21.30;18.00
16116;DHT22;8162;47.104;15.432;2023-04-06T13:56:10;23.20;17.20
16116;DHT22;8162;47.104;15.432;2023-04-06T13:59:10;23.40;17.10
16116;DHT22;8162;47.104;15.432;2023-04-06T14:02:11;24.20;16.50
16116;DHT22;8162;47.104;15.432;2023-04-06T14:05:12;24.50;16.60
16116;DHT22;8162;47.104;15.432;2023-04-06T14:08:13;23.90;16.40
16116;DHT22;8162;47.104;15.432;2023-04-06T14:11:14;22.60;16.90
16116;DHT22;8162;47.104;15.432;2023-04-06T14:14:15;23.40;16.80
16116;DHT22;8162;47.104;15.432;2023-04-06T14:17:16;23.90;16.90
16116;DHT22;8162;47.104;15.432;2023-04-06T14:20:17;24.40;16.80
16116;DHT22;8162;47.104;15.432;2023-04-06T14:23:18;24.00;16.50
16116;DHT22;8162;47.104;15.432;2023-04-06T14:29:19;23.60;16.50
16116;DHT22;8162;47.104;15.432;2023-04-06T14:32:20;22.50;17.30
16116;DHT22;8162;47.104;15.432;2023-04-06T15:39:04;22.50;17.00
16116;DHT22;8162;47.104;15.432;2023-04-06T15:42:08;25.00;16.80
16116;DHT22;8162;47.104;15.432;2023-04-06T15:45:10;23.70;16.50
16116;DHT22;8162;47.104;15.432;2023-04-06T15:48:11;22.30;17.20
16116;DHT22;8162;47.104;15.432;2023-04-06T16:09:18;21.40;17.60
16116;DHT22;8162;47.104;15.432;2023-04-06T16:57:41;15.30;21.10
16116;DHT22;8162;47.104;15.432;2023-04-06T17:00:42;12.30;23.80
16116;DHT22;8162;47.104;15.432;2023-04-06T17:03:43;12.10;23.90
16116;DHT22;8162;47.104;15.432;2023-04-06T17:06:45;12.10;24.40
